Time;durP1;ratioP1;P1;durP2;ratioP2;P2;SDS_P1;SDS_P2;PMS_P1;PMS_P2;Temp;Humidity;BMP_temperature;BMP_pressure;BME280_temperature;BME280_humidity;BME280_pressure;Samples;Min_cycle;Max_cycle;Signal;HPM_P1;HPM_P2
2023/10/22 00:00:12;;;;;;;;;;;13.10;84.70;;;;;;4948918;28;19922;-67
2023/10/22 00:02:38;;;;;;;;;;;13.10;84.80;;;;;;4948582;28;19934;-66
2023/10/22 00:05:04;;;;;;;;;;;13.00;84.90;;;;;;4948336;28;19923;-67
2023/10/22 00:07:30;;;;;;;;;;;13.10;85.10;;;;;;4941730;29;19922;-67
2023/10/22 00:09:55;;;;;;;;;;;13.00;84.90;;;;;;4948533;28;20268;-67
2023/10/22 00:12:21;;;;;;;;;;;13.00;85.00;;;;;;4948859;28;19922;-67
2023/10/22 00:14:46;;;;;;;;;;;13.00;85.10;;;;;;4947898;28;19929;-67
2023/10/22 00:17:12;;;;;;;;;;;13.00;85.20;;;;;;4937317;28;19923;-67
2023/10/22 00:19:37;;;;;;;;;;;13.10;84.90;;;;;;4941982;28;20371;-67
2023/10/22 00:22:03;;;;;;;;;;;13.00;85.20;;;;;;4948408;29;20383;-67
2023/10/22 00:24:29;;;;;;;;;;;13.00;85.00;;;;;;4947907;28;20065;-67
2023/10/22 00:26:54;;;;;;;;;;;13.00;85.10;;;;;;4946620;29;19937;-67
2023/10/22 00:29:20;;;;;;;;;;;13.00;84.90;;;;;;4946625;28;19923;-67
2023/10/22 00:31:45;;;;;;;;;;;13.00;85.10;;;;;;4946587;28;19923;-66
2023/10/22 00:34:11;;;;;;;;;;;13.00;85.00;;;;;;4947088;29;19930;-67
2023/10/22 00:36:36;;;;;;;;;;;13.00;84.90;;;;;;4946919;28;19976;-67
2023/10/22 00:39:02;;;;;;;;;;;13.10;85.20;;;;;;4945298;28;19982;-67
2023/10/22 00:41:28;;;;;;;;;;;13.10;85.20;;;;;;4945770;28;19922;-68
2023/10/22 00:43:53;;;;;;;;;;;13.10;85.60;;;;;;4946945;28;19929;-67
2023/10/22 00:46:22;;;;;;;;;;;13.00;85.80;;;;;;4946571;29;19923;-67
2023/10/22 00:48:48;;;;;;;;;;;12.90;86.20;;;;;;4946177;28;19926;-67
2023/10/22 00:51:13;;;;;;;;;;;12.90;86.60;;;;;;4947819;28;19926;-68
2023/10/22 00:53:40;;;;;;;;;;;12.90;86.70;;;;;;4948534;29;19976;-67
2023/10/22 00:56:09;;;;;;;;;;;12.80;86.70;;;;;;4949592;28;19923;-68
2023/10/22 00:58:36;;;;;;;;;;;12.80;87.40;;;;;;4949620;28;19926;-68
2023/10/22 01:01:05;;;;;;;;;;;12.80;87.90;;;;;;4946380;28;19923;-68
2023/10/22 01:03:31;;;;;;;;;;;12.70;88.30;;;;;;4950278;28;20018;-68
2023/10/22 01:05:56;;;;;;;;;;;12.70;88.40;;;;;;4950183;29;20005;-67
2023/10/22 01:08:22;;;;;;;;;;;12.60;88.40;;;;;;4949585;28;19930;-67
2023/10/22 01:10:48;;;;;;;;;;;12.50;89.10;;;;;;4949523;28;20005;-67
2023/10/22 01:13:14;;;;;;;;;;;12.50;89.20;;;;;;4950392;28;19926;-65
2023/10/22 01:15:40;;;;;;;;;;;12.50;90.00;;;;;;4949615;28;20372;-67
2023/10/22 01:18:06;;;;;;;;;;;12.40;90.50;;;;;;4949803;28;20036;-68
2023/10/22 01:20:33;;;;;;;;;;;12.40;90.80;;;;;;4949314;29;19926;-67
2023/10/22 01:22:59;;;;;;;;;;;12.30;90.80;;;;;;4949575;28;20424;-67
2023/10/22 01:25:25;;;;;;;;;;;12.30;90.90;;;;;;4949651;28;19958;-68
2023/10/22 01:27:50;;;;;;;;;;;12.30;90.90;;;;;;4948062;28;20007;-68
2023/10/22 01:30:16;;;;;;;;;;;12.30;91.10;;;;;;4948801;29;20013;-67
2023/10/22 01:32:41;;;;;;;;;;;12.30;91.20;;;;;;4948905;28;19929;-67
2023/10/22 01:35:08;;;;;;;;;;;12.30;91.30;;;;;;4949463;29;19984;-67
2023/10/22 01:37:34;;;;;;;;;;;12.30;91.80;;;;;;4949166;28;19934;-67
2023/10/22 01:39:59;;;;;;;;;;;12.20;92.00;;;;;;4949198;28;20719;-68
2023/10/22 01:42:25;;;;;;;;;;;12.20;92.10;;;;;;4949334;28;19933;-68
2023/10/22 01:44:51;;;;;;;;;;;12.20;92.00;;;;;;4948715;28;20040;-67
2023/10/22 01:47:17;;;;;;;;;;;12.20;92.10;;;;;;4945315;28;19930;-67
2023/10/22 01:49:42;;;;;;;;;;;12.20;92.00;;;;;;4949347;28;19923;-68
2023/10/22 01:52:08;;;;;;;;;;;12.10;92.20;;;;;;4949384;28;19922;-67
2023/10/22 01:54:34;;;;;;;;;;;12.10;92.40;;;;;;4948924;28;20294;-67
2023/10/22 01:57:00;;;;;;;;;;;12.10;92.70;;;;;;4948282;28;19933;-67
2023/10/22 01:59:25;;;;;;;;;;;12.10;92.70;;;;;;4949396;28;20404;-67
2023/10/22 02:01:51;;;;;;;;;;;12.10;92.80;;;;;;4948080;28;19922;-67
2023/10/22 02:04:16;;;;;;;;;;;12.10;92.70;;;;;;4948851;28;20013;-67
2023/10/22 02:06:43;;;;;;;;;;;12.20;92.80;;;;;;4949049;28;19923;-67
2023/10/22 02:09:08;;;;;;;;;;;12.10;92.90;;;;;;4948925;28;19965;-65
2023/10/22 02:11:34;;;;;;;;;;;12.10;93.20;;;;;;4948564;28;20007;-68
2023/10/22 02:13:59;;;;;;;;;;;12.10;93.30;;;;;;4948506;29;19933;-65
2023/10/22 02:16:25;;;;;;;;;;;12.10;93.30;;;;;;4949306;28;19926;-66
2023/10/22 02:18:51;;;;;;;;;;;12.10;93.30;;;;;;4948733;29;19929;-66
2023/10/22 02:21:16;;;;;;;;;;;12.10;93.40;;;;;;4948039;28;19922;-66
2023/10/22 02:23:42;;;;;;;;;;;12.10;93.40;;;;;;4948753;28;19977;-66
2023/10/22 02:26:08;;;;;;;;;;;12.10;93.40;;;;;;4948382;28;20397;-66
2023/10/22 02:28:33;;;;;;;;;;;12.10;93.50;;;;;;4947420;28;19931;-66
2023/10/22 02:30:59;;;;;;;;;;;12.10;93.60;;;;;;4947559;28;20001;-67
2023/10/22 02:33:24;;;;;;;;;;;12.10;93.60;;;;;;4948790;28;19922;-67
2023/10/22 02:35:51;;;;;;;;;;;12.10;93.60;;;;;;4948827;29;19923;-67
2023/10/22 02:38:17;;;;;;;;;;;12.10;93.60;;;;;;4948327;28;19929;-67
2023/10/22 02:40:43;;;;;;;;;;;12.10;93.60;;;;;;4946991;28;20637;-67
2023/10/22 02:43:08;;;;;;;;;;;12.10;93.60;;;;;;4948494;28;19932;-67
2023/10/22 02:45:34;;;;;;;;;;;12.10;93.60;;;;;;4948566;28;19929;-67
2023/10/22 02:48:00;;;;;;;;;;;12.10;93.60;;;;;;4947980;28;20022;-67
2023/10/22 02:50:26;;;;;;;;;;;12.10;93.60;;;;;;4948512;28;19922;-66
2023/10/22 02:52:52;;;;;;;;;;;12.10;93.70;;;;;;4947865;28;19956;-67
2023/10/22 02:55:17;;;;;;;;;;;12.10;93.70;;;;;;4946966;28;19923;-67
2023/10/22 02:57:43;;;;;;;;;;;12.10;93.60;;;;;;4948303;29;19930;-67
2023/10/22 03:00:10;;;;;;;;;;;12.10;93.60;;;;;;4948536;28;19929;-66
2023/10/22 03:02:39;;;;;;;;;;;12.10;93.60;;;;;;4947952;28;19930;-67
2023/10/22 03:05:05;;;;;;;;;;;12.10;93.50;;;;;;4947921;28;20442;-67
2023/10/22 03:07:31;;;;;;;;;;;12.10;93.60;;;;;;4947859;28;20053;-66
2023/10/22 03:09:56;;;;;;;;;;;12.10;93.60;;;;;;4948123;29;20302;-67
2023/10/22 03:12:22;;;;;;;;;;;12.10;93.60;;;;;;4948041;29;19923;-66
2023/10/22 03:14:51;;;;;;;;;;;12.20;93.50;;;;;;4947594;28;20387;-67
2023/10/22 03:17:18;;;;;;;;;;;12.20;93.50;;;;;;4947596;28;19929;-66
2023/10/22 03:19:43;;;;;;;;;;;12.20;93.60;;;;;;4947838;28;19922;-67
2023/10/22 03:22:09;;;;;;;;;;;12.20;93.60;;;;;;4947552;29;19933;-67
2023/10/22 03:24:34;;;;;;;;;;;12.20;93.60;;;;;;4947905;28;19949;-67
2023/10/22 03:27:00;;;;;;;;;;;12.20;93.60;;;;;;4943253;28;19926;-67
2023/10/22 03:29:29;;;;;;;;;;;12.20;93.60;;;;;;4946106;28;19922;-67
2023/10/22 03:31:54;;;;;;;;;;;12.30;93.60;;;;;;4947613;29;19923;-67
2023/10/22 03:34:20;;;;;;;;;;;12.20;93.50;;;;;;4947369;29;20053;-67
2023/10/22 03:36:46;;;;;;;;;;;12.30;93.50;;;;;;4947678;28;19923;-66
2023/10/22 03:39:13;;;;;;;;;;;12.20;93.40;;;;;;4947093;28;19930;-66
2023/10/22 03:41:39;;;;;;;;;;;12.30;93.30;;;;;;4947277;28;20042;-66
2023/10/22 03:44:05;;;;;;;;;;;12.30;93.30;;;;;;4947593;28;20435;-66
2023/10/22 03:46:31;;;;;;;;;;;12.30;93.40;;;;;;4947312;29;20409;-66
2023/10/22 03:48:59;;;;;;;;;;;12.30;93.50;;;;;;4946692;28;19922;-66
2023/10/22 03:51:25;;;;;;;;;;;12.30;93.40;;;;;;4947263;28;19933;-66
2023/10/22 03:53:56;;;;;;;;;;;12.30;93.40;;;;;;4946798;28;19930;-66
2023/10/22 03:56:28;;;;;;;;;;;12.30;93.40;;;;;;4947950;28;19954;-66
2023/10/22 03:58:53;;;;;;;;;;;12.30;93.40;;;;;;4946917;28;20345;-66
2023/10/22 04:01:19;;;;;;;;;;;12.40;93.50;;;;;;4946981;28;19930;-66
2023/10/22 04:03:45;;;;;;;;;;;12.40;93.50;;;;;;4947703;28;19922;-66
2023/10/22 04:06:10;;;;;;;;;;;12.40;93.40;;;;;;4946764;28;20354;-66
2023/10/22 04:08:36;;;;;;;;;;;12.40;93.50;;;;;;4946434;29;20431;-66
2023/10/22 04:11:04;;;;;;;;;;;12.40;93.40;;;;;;4936092;28;19927;-66
2023/10/22 04:13:40;;;;;;;;;;;12.40;93.30;;;;;;4946175;29;20067;-66
2023/10/22 04:16:05;;;;;;;;;;;12.40;93.40;;;;;;4945875;29;20429;-66
2023/10/22 04:18:31;;;;;;;;;;;12.40;93.60;;;;;;4947546;29;19984;-66
2023/10/22 04:20:56;;;;;;;;;;;12.40;93.60;;;;;;4947050;28;19991;-66
2023/10/22 04:23:22;;;;;;;;;;;12.40;93.70;;;;;;4946817;28;20033;-67
2023/10/22 04:25:49;;;;;;;;;;;12.50;93.90;;;;;;4947269;28;19983;-68
2023/10/22 04:28:16;;;;;;;;;;;12.40;93.80;;;;;;4951033;28;19945;-67
2023/10/22 04:30:45;;;;;;;;;;;12.50;93.80;;;;;;4949619;28;20426;-67
2023/10/22 04:33:14;;;;;;;;;;;12.60;93.70;;;;;;4947579;28;19983;-67
2023/10/22 04:35:46;;;;;;;;;;;12.60;93.80;;;;;;4950330;28;19938;-67
2023/10/22 04:38:16;;;;;;;;;;;12.60;93.80;;;;;;4949631;28;20443;-67
2023/10/22 04:40:42;;;;;;;;;;;12.60;93.80;;;;;;4948810;28;20390;-67
2023/10/22 04:43:12;;;;;;;;;;;12.60;93.80;;;;;;4950243;28;19949;-68
2023/10/22 04:45:45;;;;;;;;;;;12.60;93.70;;;;;;4950397;28;19930;-68
2023/10/22 04:48:27;;;;;;;;;;;12.60;93.80;;;;;;4951044;28;19930;-68
2023/10/22 04:50:59;;;;;;;;;;;12.60;93.70;;;;;;4949954;28;19922;-67
2023/10/22 04:53:34;;;;;;;;;;;12.70;94.20;;;;;;4949880;28;19929;-68
2023/10/22 04:56:20;;;;;;;;;;;12.70;93.80;;;;;;4950063;28;19926;-68
2023/10/22 04:58:46;;;;;;;;;;;12.70;94.10;;;;;;4948441;29;19930;-68
2023/10/22 05:01:11;;;;;;;;;;;12.70;94.10;;;;;;4949427;28;19934;-68
2023/10/22 05:03:50;;;;;;;;;;;12.70;94.30;;;;;;4950348;29;19970;-68
2023/10/22 05:06:16;;;;;;;;;;;12.80;94.20;;;;;;5014240;28;20002;-67
2023/10/22 05:09:02;;;;;;;;;;;12.80;94.00;;;;;;4932389;29;19964;-67
2023/10/22 05:11:28;;;;;;;;;;;12.90;94.50;;;;;;4944939;28;20029;-67
2023/10/22 05:13:54;;;;;;;;;;;12.90;94.20;;;;;;4950454;28;20072;-67
2023/10/22 05:16:47;;;;;;;;;;;12.90;93.80;;;;;;4950939;28;19922;-66
2023/10/22 05:19:13;;;;;;;;;;;12.70;93.60;;;;;;4933087;29;19922;-67
2023/10/22 05:21:44;;;;;;;;;;;12.60;93.60;;;;;;4950112;28;20333;-67
2023/10/22 05:24:26;;;;;;;;;;;12.40;93.70;;;;;;4946725;28;19930;-67
2023/10/22 05:26:55;;;;;;;;;;;12.30;93.70;;;;;;4948198;28;19930;-67
2023/10/22 05:29:22;;;;;;;;;;;12.20;93.80;;;;;;4947282;28;19922;-67
2023/10/22 05:31:47;;;;;;;;;;;12.20;93.80;;;;;;4950294;28;19923;-67
2023/10/22 05:34:36;;;;;;;;;;;12.10;93.80;;;;;;4949016;28;19969;-67
2023/10/22 05:37:02;;;;;;;;;;;12.10;94.00;;;;;;4950424;28;19953;-68
2023/10/22 05:39:27;;;;;;;;;;;12.00;94.10;;;;;;4949727;28;19923;-67
2023/10/22 05:41:54;;;;;;;;;;;12.00;94.10;;;;;;4949553;28;20366;-67
2023/10/22 05:44:19;;;;;;;;;;;12.10;94.30;;;;;;4949924;28;19969;-67
2023/10/22 05:46:45;;;;;;;;;;;12.10;94.30;;;;;;4950006;28;19981;-67
2023/10/22 05:49:16;;;;;;;;;;;12.10;94.30;;;;;;4949626;28;19933;-67
2023/10/22 05:52:03;;;;;;;;;;;12.10;94.60;;;;;;4949383;28;20580;-66
2023/10/22 05:55:03;;;;;;;;;;;12.10;93.60;;;;;;4947451;28;20460;-66
2023/10/22 05:57:51;;;;;;;;;;;11.90;93.80;;;;;;4950258;28;19933;-67
2023/10/22 06:00:38;;;;;;;;;;;11.80;93.70;;;;;;4947837;28;19926;-66
2023/10/22 06:03:07;;;;;;;;;;;11.80;93.80;;;;;;4950074;28;19926;-67
2023/10/22 06:05:38;;;;;;;;;;;11.80;93.70;;;;;;4950155;28;19923;-66
2023/10/22 06:08:04;;;;;;;;;;;11.80;93.80;;;;;;4949477;28;19926;-68
2023/10/22 06:10:31;;;;;;;;;;;11.70;93.80;;;;;;4949342;28;20459;-67
2023/10/22 06:13:02;;;;;;;;;;;11.70;93.70;;;;;;4949140;29;19929;-67
2023/10/22 06:15:28;;;;;;;;;;;11.70;93.70;;;;;;4947821;28;20466;-67
2023/10/22 06:17:54;;;;;;;;;;;11.60;93.70;;;;;;4949861;29;20009;-67
2023/10/22 06:20:20;;;;;;;;;;;11.60;93.80;;;;;;4949009;28;19932;-67
2023/10/22 06:23:05;;;;;;;;;;;11.60;93.90;;;;;;4942145;29;20335;-68
2023/10/22 06:25:36;;;;;;;;;;;11.60;93.90;;;;;;4947306;28;19968;-67
2023/10/22 06:28:18;;;;;;;;;;;11.60;94.00;;;;;;4944913;28;20002;-67
2023/10/22 06:34:04;;;;;;;;;;;11.70;94.00;;;;;;4949204;28;19923;-67
2023/10/22 06:37:03;;;;;;;;;;;11.70;93.90;;;;;;4937655;28;19926;-67
2023/10/22 06:39:32;;;;;;;;;;;11.70;93.90;;;;;;4948063;28;19923;-67
2023/10/22 06:42:10;;;;;;;;;;;11.70;94.00;;;;;;4945422;28;20390;-68
2023/10/22 06:44:41;;;;;;;;;;;11.80;94.00;;;;;;4959502;28;20550;-67
2023/10/22 06:47:58;;;;;;;;;;;11.70;94.00;;;;;;4939843;28;19952;-67
2023/10/22 06:50:25;;;;;;;;;;;11.80;94.10;;;;;;4947852;28;20753;-67
2023/10/22 06:52:51;;;;;;;;;;;11.80;94.10;;;;;;4964289;28;19925;-67
2023/10/22 06:55:21;;;;;;;;;;;11.80;94.10;;;;;;4951377;28;19962;-67
2023/10/22 06:57:46;;;;;;;;;;;11.80;94.10;;;;;;4948597;29;20730;-67
2023/10/22 07:00:17;;;;;;;;;;;11.80;94.00;;;;;;4947964;28;20337;-67
2023/10/22 07:02:49;;;;;;;;;;;11.80;94.00;;;;;;4948584;28;19923;-67
2023/10/22 07:05:21;;;;;;;;;;;11.80;94.00;;;;;;4947562;28;19922;-67
2023/10/22 07:08:18;;;;;;;;;;;11.80;94.00;;;;;;4936016;28;20017;-67
2023/10/22 07:11:03;;;;;;;;;;;11.80;93.90;;;;;;4948173;28;19960;-67
2023/10/22 07:13:39;;;;;;;;;;;11.70;93.90;;;;;;4948116;28;19926;-69
2023/10/22 07:16:38;;;;;;;;;;;11.80;93.90;;;;;;4947314;28;20325;-67
2023/10/22 07:19:53;;;;;;;;;;;11.70;93.70;;;;;;4992647;28;19956;-67
2023/10/22 07:22:38;;;;;;;;;;;11.70;93.50;;;;;;4948608;28;19977;-67
2023/10/22 07:25:10;;;;;;;;;;;11.70;93.30;;;;;;4958332;28;19922;-68
2023/10/22 07:27:57;;;;;;;;;;;11.70;92.70;;;;;;4948504;28;19976;-67
2023/10/22 07:34:28;;;;;;;;;;;11.80;91.40;;;;;;5027710;28;19924;-67
2023/10/22 09:38:06;;;;;;;;;;;13.00;79.20;;;;;;4645806;28;19921;-67
2023/10/22 09:40:33;;;;;;;;;;;13.00;78.30;;;;;;4985808;28;20349;-71
2023/10/22 09:43:00;;;;;;;;;;;12.90;78.50;;;;;;4983695;28;19922;-67
2023/10/22 09:45:26;;;;;;;;;;;12.90;79.30;;;;;;4981420;28;19928;-66
2023/10/22 09:47:54;;;;;;;;;;;12.80;79.60;;;;;;4981042;28;19922;-65
2023/10/22 09:50:22;;;;;;;;;;;12.70;79.70;;;;;;4988501;28;19929;-66
2023/10/22 09:52:50;;;;;;;;;;;12.60;80.40;;;;;;4976856;28;19983;-66
2023/10/22 09:55:16;;;;;;;;;;;12.60;80.60;;;;;;5041635;28;19926;-66
2023/10/22 09:57:43;;;;;;;;;;;12.60;81.30;;;;;;4988514;28;19922;-66
2023/10/22 10:00:12;;;;;;;;;;;12.70;81.00;;;;;;4988255;28;20030;-66
2023/10/22 10:02:41;;;;;;;;;;;12.70;81.00;;;;;;4987693;28;19969;-66
2023/10/22 10:05:10;;;;;;;;;;;12.70;81.10;;;;;;4974770;28;19949;-66
2023/10/22 10:07:37;;;;;;;;;;;12.70;80.80;;;;;;5020692;28;19922;-66
2023/10/22 10:10:03;;;;;;;;;;;12.60;80.80;;;;;;4988828;28;19937;-66
2023/10/22 10:12:31;;;;;;;;;;;12.60;80.10;;;;;;4988318;28;19928;-65
2023/10/22 10:14:56;;;;;;;;;;;12.60;80.50;;;;;;4984436;28;19966;-66
2023/10/22 10:17:22;;;;;;;;;;;12.60;80.20;;;;;;5054034;28;20342;-66
2023/10/22 10:19:48;;;;;;;;;;;12.60;79.60;;;;;;4987926;28;20339;-66
2023/10/22 10:22:36;;;;;;;;;;;12.60;79.40;;;;;;4988430;28;19921;-65
2023/10/22 10:25:20;;;;;;;;;;;12.70;79.70;;;;;;5054686;28;20005;-66
2023/10/22 10:27:50;;;;;;;;;;;12.80;78.30;;;;;;4987555;28;19933;-65
2023/10/22 10:30:16;;;;;;;;;;;12.90;77.60;;;;;;4987088;28;20339;-66
2023/10/22 10:32:43;;;;;;;;;;;12.90;75.60;;;;;;5053235;28;19984;-66
2023/10/22 10:35:09;;;;;;;;;;;12.90;76.40;;;;;;5053601;28;19922;-66
2023/10/22 10:37:35;;;;;;;;;;;12.90;76.70;;;;;;4987024;28;20016;-65
2023/10/22 10:40:04;;;;;;;;;;;12.90;76.60;;;;;;4986918;28;19921;-66
2023/10/22 10:42:29;;;;;;;;;;;12.90;76.60;;;;;;4987491;28;19956;-66
2023/10/22 10:44:55;;;;;;;;;;;13.00;76.50;;;;;;4988267;28;20377;-66
2023/10/22 10:47:20;;;;;;;;;;;13.10;77.50;;;;;;4986899;28;19922;-66
2023/10/22 10:49:55;;;;;;;;;;;13.10;75.20;;;;;;4987685;28;19921;-66
2023/10/22 10:52:21;;;;;;;;;;;13.20;76.80;;;;;;4987969;28;19928;-66
2023/10/22 10:55:05;;;;;;;;;;;13.30;72.80;;;;;;4988248;28;19922;-66
2023/10/22 10:57:34;;;;;;;;;;;13.50;73.60;;;;;;4988097;28;19957;-66
2023/10/22 10:59:59;;;;;;;;;;;13.60;72.00;;;;;;5054945;28;19922;-65
2023/10/22 11:02:25;;;;;;;;;;;13.60;70.60;;;;;;4983344;28;19940;-65
2023/10/22 11:04:51;;;;;;;;;;;13.70;70.00;;;;;;4984585;28;20000;-65
2023/10/22 11:07:18;;;;;;;;;;;13.60;69.20;;;;;;4986810;28;20380;-66
2023/10/22 11:09:44;;;;;;;;;;;13.70;69.40;;;;;;4986989;28;20008;-65
2023/10/22 11:12:09;;;;;;;;;;;13.80;68.10;;;;;;4987128;28;20021;-65
2023/10/22 11:14:35;;;;;;;;;;;13.90;66.00;;;;;;5054008;28;19925;-65
2023/10/22 11:17:02;;;;;;;;;;;14.10;66.40;;;;;;4975115;28;20433;-64
2023/10/22 11:19:28;;;;;;;;;;;14.10;65.30;;;;;;4969668;28;20402;-65
2023/10/22 11:21:57;;;;;;;;;;;14.20;64.70;;;;;;4982781;28;20377;-65
2023/10/22 11:24:24;;;;;;;;;;;14.20;66.90;;;;;;4983287;28;19969;-65
2023/10/22 11:26:50;;;;;;;;;;;14.20;63.30;;;;;;4984533;28;19932;-65
2023/10/22 11:29:16;;;;;;;;;;;14.20;64.10;;;;;;4984755;28;20360;-65
2023/10/22 11:31:52;;;;;;;;;;;14.10;63.60;;;;;;4985520;28;20390;-65
2023/10/22 11:34:18;;;;;;;;;;;14.10;62.20;;;;;;4986778;28;19925;-65
2023/10/22 11:36:44;;;;;;;;;;;14.10;62.60;;;;;;4987187;28;19922;-66
2023/10/22 11:39:17;;;;;;;;;;;14.10;66.00;;;;;;5054276;28;19921;-65
2023/10/22 11:41:42;;;;;;;;;;;14.10;66.20;;;;;;4986859;28;19922;-65
2023/10/22 11:44:08;;;;;;;;;;;14.10;66.00;;;;;;4987005;28;19929;-66
2023/10/22 11:46:41;;;;;;;;;;;14.10;67.70;;;;;;4985787;28;20343;-65
2023/10/22 11:49:07;;;;;;;;;;;14.10;67.50;;;;;;5053075;28;19922;-65
2023/10/22 11:51:45;;;;;;;;;;;14.10;68.00;;;;;;4985723;28;19922;-66
2023/10/22 11:54:10;;;;;;;;;;;14.10;68.10;;;;;;4985190;28;19928;-65
2023/10/22 11:56:36;;;;;;;;;;;14.10;68.80;;;;;;4985741;28;20012;-65
2023/10/22 11:59:01;;;;;;;;;;;14.10;68.80;;;;;;4985542;28;20293;-66
2023/10/22 12:01:27;;;;;;;;;;;14.10;67.10;;;;;;4986724;28;20321;-66
2023/10/22 12:03:52;;;;;;;;;;;14.10;67.30;;;;;;5054193;28;20034;-66
2023/10/22 12:06:18;;;;;;;;;;;14.10;67.20;;;;;;4986717;28;20012;-65
2023/10/22 12:08:43;;;;;;;;;;;14.10;68.10;;;;;;4987148;28;19971;-65
2023/10/22 12:11:09;;;;;;;;;;;14.20;69.00;;;;;;4987054;28;19980;-65
2023/10/22 12:13:34;;;;;;;;;;;14.30;69.10;;;;;;4986825;28;20258;-66
2023/10/22 12:16:00;;;;;;;;;;;14.20;67.30;;;;;;4987002;28;19928;-65
2023/10/22 12:18:26;;;;;;;;;;;14.20;68.30;;;;;;5054053;28;20008;-66
2023/10/22 12:20:51;;;;;;;;;;;14.10;67.30;;;;;;4986929;28;19928;-66
2023/10/22 12:23:17;;;;;;;;;;;14.10;68.00;;;;;;4986705;28;19926;-65
2023/10/22 12:25:42;;;;;;;;;;;14.10;68.00;;;;;;4986699;28;19921;-66
2023/10/22 12:28:08;;;;;;;;;;;14.00;69.50;;;;;;4986690;28;19921;-66
2023/10/22 12:30:34;;;;;;;;;;;14.10;70.90;;;;;;4986931;28;19925;-65
2023/10/22 12:33:00;;;;;;;;;;;14.10;71.60;;;;;;4986566;28;20031;-66
2023/10/22 12:35:25;;;;;;;;;;;14.10;72.10;;;;;;4986471;28;19935;-66
2023/10/22 12:37:51;;;;;;;;;;;14.10;72.30;;;;;;4986537;28;19922;-66
2023/10/22 12:40:17;;;;;;;;;;;14.10;72.70;;;;;;4986864;28;20411;-66
2023/10/22 12:42:42;;;;;;;;;;;14.20;73.00;;;;;;4986355;28;19922;-65
2023/10/22 12:45:11;;;;;;;;;;;14.10;72.50;;;;;;5053913;28;19922;-66
2023/10/22 12:47:37;;;;;;;;;;;14.20;73.40;;;;;;4988506;28;19921;-66
2023/10/22 12:50:04;;;;;;;;;;;14.10;73.90;;;;;;4989736;28;19922;-65
2023/10/22 12:52:29;;;;;;;;;;;14.20;74.10;;;;;;4989650;28;19921;-66
2023/10/22 12:54:55;;;;;;;;;;;14.30;74.40;;;;;;4988762;28;19928;-66
2023/10/22 12:57:21;;;;;;;;;;;14.20;74.40;;;;;;4988590;28;19933;-65
2023/10/22 12:59:46;;;;;;;;;;;14.30;74.90;;;;;;5055584;28;19970;-66
2023/10/22 13:02:12;;;;;;;;;;;14.40;75.40;;;;;;4988525;28;19922;-66
2023/10/22 13:04:37;;;;;;;;;;;14.40;75.80;;;;;;4988518;28;20025;-66
2023/10/22 13:07:03;;;;;;;;;;;14.50;75.90;;;;;;4989321;28;19926;-66
2023/10/22 13:09:29;;;;;;;;;;;14.60;76.10;;;;;;5056449;28;20297;-65
2023/10/22 13:11:54;;;;;;;;;;;14.60;76.10;;;;;;4989580;28;20391;-66
2023/10/22 13:14:20;;;;;;;;;;;14.60;76.30;;;;;;4989288;28;20399;-66
2023/10/22 13:16:46;;;;;;;;;;;14.60;76.10;;;;;;4988114;28;20309;-66
2023/10/22 13:19:11;;;;;;;;;;;14.60;76.50;;;;;;4988191;28;19974;-65
2023/10/22 13:21:37;;;;;;;;;;;14.60;76.30;;;;;;4988077;28;20036;-66
2023/10/22 13:24:03;;;;;;;;;;;14.60;76.60;;;;;;4988008;28;19921;-66
2023/10/22 13:26:29;;;;;;;;;;;14.60;76.40;;;;;;4987978;28;19926;-66
2023/10/22 13:28:54;;;;;;;;;;;14.60;75.60;;;;;;4987847;28;19995;-66
2023/10/22 13:31:20;;;;;;;;;;;14.50;75.70;;;;;;5056678;28;19922;-66
2023/10/22 13:33:45;;;;;;;;;;;14.50;75.50;;;;;;4989224;28;19922;-66
2023/10/22 13:36:11;;;;;;;;;;;14.50;75.20;;;;;;5039531;28;19928;-66
2023/10/22 13:38:37;;;;;;;;;;;14.50;72.30;;;;;;4989108;28;20017;-66
2023/10/22 13:41:02;;;;;;;;;;;14.50;71.80;;;;;;4989229;28;19921;-66
2023/10/22 13:43:28;;;;;;;;;;;14.50;71.50;;;;;;4988957;28;19922;-66
2023/10/22 13:45:53;;;;;;;;;;;14.40;70.40;;;;;;4989160;28;19922;-66
2023/10/22 13:48:19;;;;;;;;;;;14.60;72.20;;;;;;4989034;28;19969;-65
2023/10/22 13:50:44;;;;;;;;;;;14.60;71.70;;;;;;4988799;28;19921;-66
2023/10/22 13:53:10;;;;;;;;;;;14.70;70.00;;;;;;4988737;28;19994;-66
2023/10/22 13:55:36;;;;;;;;;;;14.90;69.30;;;;;;4989014;28;19922;-66
2023/10/22 13:58:01;;;;;;;;;;;14.90;69.10;;;;;;4988148;28;20387;-66
2023/10/22 14:00:27;;;;;;;;;;;14.90;69.20;;;;;;4988341;28;20357;-66
2023/10/22 14:02:52;;;;;;;;;;;14.90;69.30;;;;;;4988947;28;19979;-66
2023/10/22 14:05:18;;;;;;;;;;;14.90;69.00;;;;;;5056387;28;20047;-66
2023/10/22 14:07:45;;;;;;;;;;;14.90;69.80;;;;;;5056574;28;19979;-66
2023/10/22 14:10:10;;;;;;;;;;;15.00;69.40;;;;;;4989333;28;19982;-66
2023/10/22 14:12:36;;;;;;;;;;;14.90;69.70;;;;;;4988735;28;19922;-66
2023/10/22 14:15:02;;;;;;;;;;;15.00;70.60;;;;;;4988603;28;19973;-66
2023/10/22 14:17:28;;;;;;;;;;;14.90;69.30;;;;;;4988665;28;19976;-66
2023/10/22 14:19:53;;;;;;;;;;;14.90;68.50;;;;;;4988308;28;19929;-66
2023/10/22 14:22:19;;;;;;;;;;;14.80;68.40;;;;;;4988673;28;19929;-66
2023/10/22 14:24:45;;;;;;;;;;;14.80;68.00;;;;;;4988546;28;20051;-65
2023/10/22 14:27:10;;;;;;;;;;;14.70;67.30;;;;;;4988480;28;20304;-65
2023/10/22 14:29:36;;;;;;;;;;;14.70;67.50;;;;;;4988524;28;20277;-66
2023/10/22 14:32:02;;;;;;;;;;;14.70;66.90;;;;;;4988602;28;19929;-66
2023/10/22 14:34:27;;;;;;;;;;;14.60;66.40;;;;;;4987272;28;19921;-66
2023/10/22 14:36:53;;;;;;;;;;;14.60;66.40;;;;;;5055352;28;19922;-66
2023/10/22 14:39:23;;;;;;;;;;;14.60;67.00;;;;;;5055398;28;19922;-65
2023/10/22 14:41:49;;;;;;;;;;;14.50;67.20;;;;;;5038947;28;19922;-66
2023/10/22 14:44:14;;;;;;;;;;;14.60;68.20;;;;;;4988213;28;19928;-65
2023/10/22 14:46:40;;;;;;;;;;;14.60;67.60;;;;;;4988049;28;19992;-66
2023/10/22 14:49:05;;;;;;;;;;;14.60;67.30;;;;;;5055285;28;19929;-65
2023/10/22 14:51:31;;;;;;;;;;;14.50;66.10;;;;;;4988259;28;19928;-65
2023/10/22 14:53:56;;;;;;;;;;;14.50;67.90;;;;;;5055772;28;19925;-65
2023/10/22 14:56:22;;;;;;;;;;;14.60;67.50;;;;;;4988062;28;19929;-65
2023/10/22 14:58:47;;;;;;;;;;;14.60;68.40;;;;;;4988357;28;20290;-66
2023/10/22 15:01:13;;;;;;;;;;;14.60;68.10;;;;;;4987809;28;19922;-65
2023/10/22 15:03:39;;;;;;;;;;;14.60;68.20;;;;;;4988036;28;19929;-65
2023/10/22 15:06:05;;;;;;;;;;;14.60;68.10;;;;;;4987806;28;19921;-65
2023/10/22 15:08:30;;;;;;;;;;;14.60;67.90;;;;;;4988121;28;19965;-66
2023/10/22 15:10:56;;;;;;;;;;;14.50;68.20;;;;;;4987746;28;19968;-66
2023/10/22 15:13:22;;;;;;;;;;;14.60;68.50;;;;;;4987572;28;19958;-66
2023/10/22 15:15:47;;;;;;;;;;;14.50;68.60;;;;;;5038167;28;19921;-66
2023/10/22 15:18:14;;;;;;;;;;;14.50;68.70;;;;;;4987739;28;19922;-65
2023/10/22 15:20:49;;;;;;;;;;;14.50;68.80;;;;;;4987615;28;19922;-66
2023/10/22 15:23:15;;;;;;;;;;;14.40;68.70;;;;;;4987528;28;20009;-66
2023/10/22 15:25:46;;;;;;;;;;;14.30;69.30;;;;;;4988091;28;19997;-66
2023/10/22 15:28:12;;;;;;;;;;;14.30;69.80;;;;;;4987722;28;19967;-66
2023/10/22 15:30:38;;;;;;;;;;;14.30;69.00;;;;;;4987857;28;19921;-66
2023/10/22 15:33:04;;;;;;;;;;;14.30;69.90;;;;;;4987240;28;19929;-66
2023/10/22 15:35:30;;;;;;;;;;;14.40;70.50;;;;;;4987416;28;19957;-66
2023/10/22 15:38:00;;;;;;;;;;;14.30;70.00;;;;;;4987559;28;19976;-66
2023/10/22 15:40:26;;;;;;;;;;;14.30;70.20;;;;;;4987298;28;19930;-66
2023/10/22 15:42:52;;;;;;;;;;;14.30;69.30;;;;;;4984632;28;19969;-66
2023/10/22 15:45:17;;;;;;;;;;;14.30;70.00;;;;;;4966552;28;19961;-69
2023/10/22 15:47:43;;;;;;;;;;;14.30;70.10;;;;;;4966313;28;19929;-69
2023/10/22 15:50:09;;;;;;;;;;;14.30;70.80;;;;;;4967616;28;19997;-69
2023/10/22 15:52:35;;;;;;;;;;;14.30;70.10;;;;;;5017643;28;19926;-69
2023/10/22 15:55:01;;;;;;;;;;;14.30;70.50;;;;;;5034245;28;19922;-69
2023/10/22 15:57:26;;;;;;;;;;;14.20;70.40;;;;;;4967759;28;20572;-70
2023/10/22 15:59:52;;;;;;;;;;;14.10;70.20;;;;;;5017629;28;20043;-69
2023/10/22 16:02:18;;;;;;;;;;;14.10;70.50;;;;;;4967845;28;19921;-70
2023/10/22 16:04:43;;;;;;;;;;;14.00;70.40;;;;;;5047569;28;19922;-70
2023/10/22 16:07:09;;;;;;;;;;;13.90;71.10;;;;;;4979188;28;19921;-70
2023/10/22 16:09:34;;;;;;;;;;;13.90;71.00;;;;;;4984522;28;20296;-69
2023/10/22 16:12:00;;;;;;;;;;;13.80;71.50;;;;;;4977403;28;19929;-69
2023/10/22 16:14:26;;;;;;;;;;;13.60;72.00;;;;;;4974458;28;19975;-69
2023/10/22 16:16:51;;;;;;;;;;;13.50;72.10;;;;;;4974813;28;19964;-70
2023/10/22 16:19:17;;;;;;;;;;;13.30;72.30;;;;;;4986579;28;20447;-69
2023/10/22 16:21:43;;;;;;;;;;;13.20;73.00;;;;;;4972030;28;19969;-70
2023/10/22 16:24:09;;;;;;;;;;;13.10;72.90;;;;;;4977270;28;20003;-69
2023/10/22 16:26:34;;;;;;;;;;;13.10;73.50;;;;;;4985015;28;19940;-69
2023/10/22 16:29:00;;;;;;;;;;;12.90;73.70;;;;;;4975965;28;20038;-69